createdAt,value
2018-11-02T21:05:20.398Z,23.03
2018-11-02T21:07:49.972Z,22.71
2018-11-02T21:10:20.143Z,22.61
2018-11-02T21:14:38.297Z,22.57
2018-11-02T21:17:07.630Z,22.56
2018-11-02T21:19:37.340Z,22.56
2018-11-02T21:22:09.603Z,22.58
2018-11-02T21:41:34.276Z,27.08
2018-11-02T21:44:03.590Z,26.89
2018-11-02T21:46:32.422Z,26.97
2018-11-02T21:49:01.372Z,26.64
2018-11-02T21:51:30.677Z,26.63
2018-11-02T21:55:19.260Z,25.92
2018-11-02T21:57:48.178Z,25.11
2018-11-02T22:00:20.430Z,24.09
2018-11-02T22:02:49.352Z,22.79
2018-11-02T22:05:21.124Z,21.97
2018-11-02T22:07:50.777Z,20.99
2018-11-02T22:10:19.910Z,20.63
2018-11-02T22:12:48.898Z,20.16
2018-11-02T22:15:17.861Z,19.78
2018-11-02T22:17:46.818Z,19.40
2018-11-02T22:20:16.324Z,19.07
2018-11-02T22:22:45.281Z,18.77
2018-11-02T22:25:14.992Z,18.40
2018-11-02T22:27:43.916Z,18.09
2018-11-02T22:30:14.320Z,17.85
2018-11-02T22:32:43.262Z,17.56
2018-11-02T22:35:12.852Z,17.36
2018-11-02T22:37:41.805Z,17.19
2018-11-02T22:40:11.753Z,16.93
2018-11-02T22:42:41.422Z,16.81
2018-11-02T22:45:11.469Z,16.67
2018-11-02T22:47:40.450Z,16.52
2018-11-02T22:50:09.816Z,16.28
2018-11-02T22:52:38.897Z,16.26
2018-11-02T22:55:08.453Z,16.13
2018-11-02T22:57:37.327Z,16.20
2018-11-02T23:00:10.050Z,15.99
2018-11-02T23:02:39.039Z,15.77
2018-11-02T23:05:08.050Z,15.94
2018-11-02T23:07:36.928Z,16.11
2018-11-02T23:10:06.853Z,16.35
2018-11-02T23:12:35.730Z,16.56
2018-11-02T23:15:04.887Z,16.73
2018-11-02T23:17:33.813Z,16.95
2018-11-02T23:20:02.888Z,17.07
2018-11-02T23:22:31.875Z,17.15
2018-11-02T23:25:00.781Z,17.19
2018-11-02T23:27:29.762Z,17.08
2018-11-02T23:29:58.653Z,16.96
2018-11-02T23:32:27.595Z,16.73
2018-11-02T23:34:56.507Z,16.34
2018-11-02T23:37:25.505Z,16.21
2018-11-02T23:39:54.554Z,16.09
2018-11-02T23:42:23.577Z,15.85
2018-11-02T23:44:52.520Z,15.70
2018-11-02T23:47:21.394Z,15.60
2018-11-02T23:49:50.290Z,15.55
2018-11-02T23:52:19.185Z,15.46
2018-11-02T23:54:48.105Z,15.40
2018-11-02T23:57:17.062Z,15.34
2018-11-02T23:59:46.017Z,15.23
